sensor_id;sensor_type;location;lat;lon;timestamp;P1;durP1;ratioP1;P2;durP2;ratioP2
24143;SDS011;12307;50.828;6.080;2023-12-14T00:01:51;2.10;;;1.40;;
24143;SDS011;12307;50.828;6.080;2023-12-14T00:04:17;1.45;;;1.27;;
24143;SDS011;12307;50.828;6.080;2023-12-14T00:06:43;1.38;;;1.20;;
24143;SDS011;12307;50.828;6.080;2023-12-14T00:09:09;1.73;;;1.48;;
24143;SDS011;12307;50.828;6.080;2023-12-14T00:11:37;2.05;;;1.63;;
24143;SDS011;12307;50.828;6.080;2023-12-14T00:14:03;1.40;;;1.30;;
24143;SDS011;12307;50.828;6.080;2023-12-14T00:16:30;1.67;;;1.20;;
24143;SDS011;12307;50.828;6.080;2023-12-14T00:18:55;1.70;;;1.50;;
24143;SDS011;12307;50.828;6.080;2023-12-14T00:21:21;1.20;;;1.10;;
24143;SDS011;12307;50.828;6.080;2023-12-14T00:23:47;1.80;;;1.40;;
24143;SDS011;12307;50.828;6.080;2023-12-14T00:26:13;1.23;;;1.13;;
24143;SDS011;12307;50.828;6.080;2023-12-14T00:28:39;2.25;;;1.40;;
24143;SDS011;12307;50.828;6.080;2023-12-14T00:31:04;1.20;;;1.08;;
24143;SDS011;12307;50.828;6.080;2023-12-14T00:33:32;1.50;;;1.40;;
24143;SDS011;12307;50.828;6.080;2023-12-14T00:35:57;2.10;;;1.40;;
24143;SDS011;12307;50.828;6.080;2023-12-14T00:38:23;1.67;;;1.42;;
24143;SDS011;12307;50.828;6.080;2023-12-14T00:40:49;1.80;;;1.50;;
24143;SDS011;12307;50.828;6.080;2023-12-14T00:43:14;2.30;;;1.30;;
24143;SDS011;12307;50.828;6.080;2023-12-14T00:45:40;2.00;;;1.40;;
24143;SDS011;12307;50.828;6.080;2023-12-14T00:48:06;1.50;;;1.40;;
24143;SDS011;12307;50.828;6.080;2023-12-14T00:50:33;1.95;;;1.63;;
24143;SDS011;12307;50.828;6.080;2023-12-14T00:52:59;1.88;;;1.33;;
24143;SDS011;12307;50.828;6.080;2023-12-14T00:55:25;1.50;;;1.40;;
24143;SDS011;12307;50.828;6.080;2023-12-14T00:57:51;2.55;;;1.50;;
24143;SDS011;12307;50.828;6.080;2023-12-14T01:00:17;3.25;;;1.50;;
24143;SDS011;12307;50.828;6.080;2023-12-14T01:02:44;2.00;;;1.42;;
24143;SDS011;12307;50.828;6.080;2023-12-14T01:05:09;2.00;;;1.73;;
24143;SDS011;12307;50.828;6.080;2023-12-14T01:07:37;2.22;;;1.58;;
24143;SDS011;12307;50.828;6.080;2023-12-14T01:10:02;1.85;;;1.45;;
24143;SDS011;12307;50.828;6.080;2023-12-14T01:12:29;2.00;;;1.70;;
24143;SDS011;12307;50.828;6.080;2023-12-14T01:14:54;1.83;;;1.58;;
24143;SDS011;12307;50.828;6.080;2023-12-14T01:17:20;1.90;;;1.40;;
24143;SDS011;12307;50.828;6.080;2023-12-14T01:19:46;1.70;;;1.48;;
24143;SDS011;12307;50.828;6.080;2023-12-14T01:22:12;1.55;;;1.40;;
24143;SDS011;12307;50.828;6.080;2023-12-14T01:24:39;1.80;;;1.45;;
24143;SDS011;12307;50.828;6.080;2023-12-14T01:27:04;1.63;;;1.52;;
24143;SDS011;12307;50.828;6.080;2023-12-14T01:29:30;1.70;;;1.52;;
24143;SDS011;12307;50.828;6.080;2023-12-14T01:31:56;2.72;;;1.80;;
24143;SDS011;12307;50.828;6.080;2023-12-14T01:34:22;1.90;;;1.60;;
24143;SDS011;12307;50.828;6.080;2023-12-14T01:36:47;1.55;;;1.40;;
24143;SDS011;12307;50.828;6.080;2023-12-14T01:39:13;1.83;;;1.58;;
24143;SDS011;12307;50.828;6.080;2023-12-14T01:41:40;1.70;;;1.50;;
24143;SDS011;12307;50.828;6.080;2023-12-14T01:44:06;2.35;;;1.63;;
24143;SDS011;12307;50.828;6.080;2023-12-14T01:46:31;2.22;;;1.58;;
24143;SDS011;12307;50.828;6.080;2023-12-14T01:48:57;2.25;;;1.90;;
24143;SDS011;12307;50.828;6.080;2023-12-14T01:51:23;2.05;;;1.85;;
24143;SDS011;12307;50.828;6.080;2023-12-14T01:53:49;2.35;;;2.15;;
24143;SDS011;12307;50.828;6.080;2023-12-14T01:56:14;2.53;;;1.85;;
24143;SDS011;12307;50.828;6.080;2023-12-14T01:58:41;2.83;;;2.20;;
24143;SDS011;12307;50.828;6.080;2023-12-14T02:01:08;2.65;;;1.98;;
24143;SDS011;12307;50.828;6.080;2023-12-14T02:03:46;2.15;;;1.80;;
24143;SDS011;12307;50.828;6.080;2023-12-14T02:06:13;2.33;;;2.00;;
24143;SDS011;12307;50.828;6.080;2023-12-14T02:08:38;2.58;;;1.95;;
24143;SDS011;12307;50.828;6.080;2023-12-14T02:11:04;2.35;;;2.10;;
24143;SDS011;12307;50.828;6.080;2023-12-14T02:13:30;2.20;;;1.90;;
24143;SDS011;12307;50.828;6.080;2023-12-14T02:15:57;2.10;;;1.90;;
24143;SDS011;12307;50.828;6.080;2023-12-14T02:18:23;2.15;;;1.88;;
24143;SDS011;12307;50.828;6.080;2023-12-14T02:20:48;2.63;;;2.10;;
24143;SDS011;12307;50.828;6.080;2023-12-14T02:23:15;2.30;;;1.80;;
24143;SDS011;12307;50.828;6.080;2023-12-14T02:25:41;2.10;;;1.90;;
24143;SDS011;12307;50.828;6.080;2023-12-14T02:28:07;2.60;;;1.95;;
24143;SDS011;12307;50.828;6.080;2023-12-14T02:30:32;1.98;;;1.77;;
24143;SDS011;12307;50.828;6.080;2023-12-14T02:32:58;2.58;;;1.95;;
24143;SDS011;12307;50.828;6.080;2023-12-14T02:35:24;1.80;;;1.65;;
24143;SDS011;12307;50.828;6.080;2023-12-14T02:37:50;2.05;;;1.85;;
24143;SDS011;12307;50.828;6.080;2023-12-14T02:40:18;2.10;;;1.70;;
24143;SDS011;12307;50.828;6.080;2023-12-14T02:42:43;2.00;;;1.77;;
24143;SDS011;12307;50.828;6.080;2023-12-14T02:45:09;2.53;;;2.03;;
24143;SDS011;12307;50.828;6.080;2023-12-14T02:47:35;2.03;;;1.77;;
24143;SDS011;12307;50.828;6.080;2023-12-14T02:50:01;1.63;;;1.52;;
24143;SDS011;12307;50.828;6.080;2023-12-14T02:52:28;1.83;;;1.52;;
24143;SDS011;12307;50.828;6.080;2023-12-14T02:54:53;2.45;;;1.75;;
24143;SDS011;12307;50.828;6.080;2023-12-14T02:57:20;1.90;;;1.75;;
24143;SDS011;12307;50.828;6.080;2023-12-14T02:59:46;2.17;;;1.50;;
24143;SDS011;12307;50.828;6.080;2023-12-14T03:02:12;2.17;;;1.65;;
24143;SDS011;12307;50.828;6.080;2023-12-14T03:04:38;1.65;;;1.55;;
24143;SDS011;12307;50.828;6.080;2023-12-14T03:07:04;1.90;;;1.55;;
24143;SDS011;12307;50.828;6.080;2023-12-14T03:09:30;1.70;;;1.60;;
24143;SDS011;12307;50.828;6.080;2023-12-14T03:11:56;1.75;;;1.45;;
24143;SDS011;12307;50.828;6.080;2023-12-14T03:14:23;2.13;;;1.58;;
24143;SDS011;12307;50.828;6.080;2023-12-14T03:16:49;2.17;;;1.75;;
24143;SDS011;12307;50.828;6.080;2023-12-14T03:19:15;2.40;;;1.60;;
24143;SDS011;12307;50.828;6.080;2023-12-14T03:21:41;2.03;;;1.83;;
24143;SDS011;12307;50.828;6.080;2023-12-14T03:24:07;1.40;;;1.30;;
24143;SDS011;12307;50.828;6.080;2023-12-14T03:26:34;1.50;;;1.40;;
24143;SDS011;12307;50.828;6.080;2023-12-14T03:29:00;1.70;;;1.58;;
24143;SDS011;12307;50.828;6.080;2023-12-14T03:31:27;2.10;;;1.50;;
24143;SDS011;12307;50.828;6.080;2023-12-14T03:33:52;1.73;;;1.50;;
24143;SDS011;12307;50.828;6.080;2023-12-14T03:36:18;1.60;;;1.50;;
24143;SDS011;12307;50.828;6.080;2023-12-14T03:38:44;1.67;;;1.55;;
24143;SDS011;12307;50.828;6.080;2023-12-14T03:41:10;1.75;;;1.55;;
24143;SDS011;12307;50.828;6.080;2023-12-14T03:43:35;1.60;;;1.50;;
24143;SDS011;12307;50.828;6.080;2023-12-14T03:46:01;1.63;;;1.50;;
24143;SDS011;12307;50.828;6.080;2023-12-14T03:48:28;1.60;;;1.40;;
24143;SDS011;12307;50.828;6.080;2023-12-14T03:50:54;1.60;;;1.50;;
24143;SDS011;12307;50.828;6.080;2023-12-14T03:53:20;2.00;;;1.50;;
24143;SDS011;12307;50.828;6.080;2023-12-14T03:55:45;1.55;;;1.45;;
24143;SDS011;12307;50.828;6.080;2023-12-14T03:58:11;1.70;;;1.52;;
24143;SDS011;12307;50.828;6.080;2023-12-14T04:00:37;1.42;;;1.33;;
24143;SDS011;12307;50.828;6.080;2023-12-14T04:03:03;1.63;;;1.30;;
24143;SDS011;12307;50.828;6.080;2023-12-14T04:05:30;1.77;;;1.63;;
24143;SDS011;12307;50.828;6.080;2023-12-14T04:07:55;1.58;;;1.48;;
24143;SDS011;12307;50.828;6.080;2023-12-14T04:10:21;1.75;;;1.30;;
24143;SDS011;12307;50.828;6.080;2023-12-14T04:12:47;1.73;;;1.50;;
24143;SDS011;12307;50.828;6.080;2023-12-14T04:15:12;1.45;;;1.35;;
24143;SDS011;12307;50.828;6.080;2023-12-14T04:17:38;1.65;;;1.48;;
24143;SDS011;12307;50.828;6.080;2023-12-14T04:20:04;1.45;;;1.33;;
24143;SDS011;12307;50.828;6.080;2023-12-14T04:22:33;1.73;;;1.50;;
24143;SDS011;12307;50.828;6.080;2023-12-14T04:24:58;1.52;;;1.40;;
24143;SDS011;12307;50.828;6.080;2023-12-14T04:27:24;1.73;;;1.60;;
24143;SDS011;12307;50.828;6.080;2023-12-14T04:29:53;1.60;;;1.50;;
24143;SDS011;12307;50.828;6.080;2023-12-14T04:32:19;1.80;;;1.52;;
24143;SDS011;12307;50.828;6.080;2023-12-14T04:34:45;1.65;;;1.55;;
24143;SDS011;12307;50.828;6.080;2023-12-14T04:37:10;1.90;;;1.50;;
24143;SDS011;12307;50.828;6.080;2023-12-14T04:39:37;1.73;;;1.60;;
24143;SDS011;12307;50.828;6.080;2023-12-14T04:42:03;1.85;;;1.40;;
24143;SDS011;12307;50.828;6.080;2023-12-14T04:44:29;1.60;;;1.38;;
24143;SDS011;12307;50.828;6.080;2023-12-14T04:46:55;1.50;;;1.40;;
24143;SDS011;12307;50.828;6.080;2023-12-14T04:49:21;1.50;;;1.40;;
24143;SDS011;12307;50.828;6.080;2023-12-14T04:51:47;1.30;;;1.20;;
24143;SDS011;12307;50.828;6.080;2023-12-14T04:54:12;1.45;;;1.30;;
24143;SDS011;12307;50.828;6.080;2023-12-14T04:56:39;1.52;;;1.20;;
24143;SDS011;12307;50.828;6.080;2023-12-14T04:59:06;1.33;;;1.23;;
24143;SDS011;12307;50.828;6.080;2023-12-14T05:01:32;1.50;;;1.35;;
24143;SDS011;12307;50.828;6.080;2023-12-14T05:03:58;1.40;;;1.25;;
24143;SDS011;12307;50.828;6.080;2023-12-14T05:06:23;1.42;;;1.33;;
24143;SDS011;12307;50.828;6.080;2023-12-14T05:08:49;1.50;;;1.33;;
24143;SDS011;12307;50.828;6.080;2023-12-14T05:11:15;1.75;;;1.30;;
24143;SDS011;12307;50.828;6.080;2023-12-14T05:13:42;1.40;;;1.20;;
24143;SDS011;12307;50.828;6.080;2023-12-14T05:16:12;1.40;;;1.30;;
24143;SDS011;12307;50.828;6.080;2023-12-14T05:18:38;1.40;;;1.30;;
24143;SDS011;12307;50.828;6.080;2023-12-14T05:21:04;1.38;;;1.20;;
24143;SDS011;12307;50.828;6.080;2023-12-14T05:23:30;1.40;;;1.30;;
24143;SDS011;12307;50.828;6.080;2023-12-14T05:25:56;1.58;;;1.42;;
24143;SDS011;12307;50.828;6.080;2023-12-14T05:28:22;1.52;;;1.42;;
24143;SDS011;12307;50.828;6.080;2023-12-14T05:30:49;1.60;;;1.50;;
24143;SDS011;12307;50.828;6.080;2023-12-14T05:33:15;1.50;;;1.40;;
24143;SDS011;12307;50.828;6.080;2023-12-14T05:35:40;1.60;;;1.33;;
24143;SDS011;12307;50.828;6.080;2023-12-14T05:38:06;1.60;;;1.50;;
24143;SDS011;12307;50.828;6.080;2023-12-14T05:40:32;1.10;;;1.00;;
24143;SDS011;12307;50.828;6.080;2023-12-14T05:42:57;1.45;;;1.35;;
24143;SDS011;12307;50.828;6.080;2023-12-14T05:45:23;1.40;;;1.30;;
24143;SDS011;12307;50.828;6.080;2023-12-14T05:47:50;1.40;;;1.30;;
24143;SDS011;12307;50.828;6.080;2023-12-14T05:50:16;1.40;;;1.30;;
24143;SDS011;12307;50.828;6.080;2023-12-14T05:52:42;1.75;;;1.40;;
24143;SDS011;12307;50.828;6.080;2023-12-14T05:55:07;1.23;;;1.10;;
24143;SDS011;12307;50.828;6.080;2023-12-14T05:57:35;1.40;;;1.30;;
24143;SDS011;12307;50.828;6.080;2023-12-14T06:00:00;1.40;;;1.30;;
24143;SDS011;12307;50.828;6.080;2023-12-14T06:02:26;1.33;;;1.23;;
24143;SDS011;12307;50.828;6.080;2023-12-14T06:04:53;1.73;;;1.40;;
24143;SDS011;12307;50.828;6.080;2023-12-14T06:07:21;1.58;;;1.48;;
24143;SDS011;12307;50.828;6.080;2023-12-14T06:09:47;1.50;;;1.35;;
24143;SDS011;12307;50.828;6.080;2023-12-14T06:12:13;1.40;;;1.25;;
24143;SDS011;12307;50.828;6.080;2023-12-14T06:14:39;1.40;;;1.30;;
24143;SDS011;12307;50.828;6.080;2023-12-14T06:17:04;1.33;;;1.23;;
24143;SDS011;12307;50.828;6.080;2023-12-14T06:19:30;1.30;;;1.20;;
24143;SDS011;12307;50.828;6.080;2023-12-14T06:21:57;1.50;;;1.40;;
24143;SDS011;12307;50.828;6.080;2023-12-14T06:24:23;1.50;;;1.40;;
24143;SDS011;12307;50.828;6.080;2023-12-14T06:26:49;1.42;;;1.25;;
24143;SDS011;12307;50.828;6.080;2023-12-14T06:29:14;1.38;;;1.27;;
24143;SDS011;12307;50.828;6.080;2023-12-14T06:31:40;1.30;;;1.20;;
24143;SDS011;12307;50.828;6.080;2023-12-14T06:34:06;1.90;;;1.30;;
24143;SDS011;12307;50.828;6.080;2023-12-14T06:36:33;1.50;;;1.30;;
24143;SDS011;12307;50.828;6.080;2023-12-14T06:39:00;1.60;;;1.27;;
24143;SDS011;12307;50.828;6.080;2023-12-14T06:41:28;1.50;;;1.40;;
24143;SDS011;12307;50.828;6.080;2023-12-14T06:43:54;1.40;;;1.30;;
24143;SDS011;12307;50.828;6.080;2023-12-14T06:46:20;1.20;;;1.10;;
24143;SDS011;12307;50.828;6.080;2023-12-14T06:48:46;1.30;;;1.20;;
24143;SDS011;12307;50.828;6.080;2023-12-14T06:51:12;1.30;;;1.20;;
24143;SDS011;12307;50.828;6.080;2023-12-14T06:53:39;1.20;;;1.10;;
24143;SDS011;12307;50.828;6.080;2023-12-14T06:56:07;1.60;;;1.15;;
24143;SDS011;12307;50.828;6.080;2023-12-14T06:58:38;1.73;;;1.50;;
24143;SDS011;12307;50.828;6.080;2023-12-14T07:01:04;1.40;;;1.30;;
24143;SDS011;12307;50.828;6.080;2023-12-14T07:03:30;1.30;;;1.20;;
24143;SDS011;12307;50.828;6.080;2023-12-14T07:05:56;1.40;;;1.30;;
24143;SDS011;12307;50.828;6.080;2023-12-14T07:08:22;1.20;;;1.10;;
24143;SDS011;12307;50.828;6.080;2023-12-14T07:10:48;1.10;;;1.00;;
24143;SDS011;12307;50.828;6.080;2023-12-14T07:13:15;1.50;;;1.17;;
24143;SDS011;12307;50.828;6.080;2023-12-14T07:15:41;1.60;;;1.20;;
24143;SDS011;12307;50.828;6.080;2023-12-14T07:18:06;1.27;;;1.17;;
24143;SDS011;12307;50.828;6.080;2023-12-14T07:20:32;1.50;;;1.30;;
24143;SDS011;12307;50.828;6.080;2023-12-14T07:22:58;1.10;;;1.00;;
24143;SDS011;12307;50.828;6.080;2023-12-14T07:25:24;1.75;;;1.40;;
24143;SDS011;12307;50.828;6.080;2023-12-14T07:27:49;1.35;;;1.20;;
24143;SDS011;12307;50.828;6.080;2023-12-14T07:30:17;1.33;;;1.23;;
24143;SDS011;12307;50.828;6.080;2023-12-14T07:32:42;1.30;;;1.20;;
24143;SDS011;12307;50.828;6.080;2023-12-14T07:35:09;1.25;;;1.15;;
24143;SDS011;12307;50.828;6.080;2023-12-14T07:37:35;1.20;;;1.05;;
24143;SDS011;12307;50.828;6.080;2023-12-14T07:40:01;1.10;;;1.00;;
24143;SDS011;12307;50.828;6.080;2023-12-14T07:42:28;1.67;;;1.20;;
24143;SDS011;12307;50.828;6.080;2023-12-14T07:44:54;1.17;;;1.10;;
24143;SDS011;12307;50.828;6.080;2023-12-14T07:47:21;1.40;;;1.30;;
24143;SDS011;12307;50.828;6.080;2023-12-14T07:49:46;1.20;;;1.10;;
24143;SDS011;12307;50.828;6.080;2023-12-14T07:52:12;1.38;;;1.27;;
24143;SDS011;12307;50.828;6.080;2023-12-14T07:54:39;1.20;;;1.10;;
24143;SDS011;12307;50.828;6.080;2023-12-14T07:57:04;1.10;;;1.10;;
24143;SDS011;12307;50.828;6.080;2023-12-14T07:59:30;1.35;;;1.20;;
24143;SDS011;12307;50.828;6.080;2023-12-14T08:01:56;1.30;;;1.20;;
24143;SDS011;12307;50.828;6.080;2023-12-14T08:04:23;1.52;;;1.20;;
24143;SDS011;12307;50.828;6.080;2023-12-14T08:06:49;1.48;;;1.25;;
24143;SDS011;12307;50.828;6.080;2023-12-14T08:09:14;1.27;;;1.17;;
24143;SDS011;12307;50.828;6.080;2023-12-14T08:11:40;1.63;;;1.27;;
24143;SDS011;12307;50.828;6.080;2023-12-14T08:14:06;1.23;;;1.13;;
24143;SDS011;12307;50.828;6.080;2023-12-14T08:16:31;1.25;;;1.10;;
24143;SDS011;12307;50.828;6.080;2023-12-14T08:18:57;1.20;;;1.10;;
24143;SDS011;12307;50.828;6.080;2023-12-14T08:21:24;1.60;;;1.40;;
24143;SDS011;12307;50.828;6.080;2023-12-14T08:23:50;1.40;;;1.30;;
24143;SDS011;12307;50.828;6.080;2023-12-14T08:26:16;1.08;;;0.98;;
24143;SDS011;12307;50.828;6.080;2023-12-14T08:28:41;1.45;;;1.35;;
24143;SDS011;12307;50.828;6.080;2023-12-14T08:31:08;1.40;;;1.30;;
24143;SDS011;12307;50.828;6.080;2023-12-14T08:33:36;1.60;;;1.30;;
24143;SDS011;12307;50.828;6.080;2023-12-14T08:36:02;1.40;;;1.20;;
24143;SDS011;12307;50.828;6.080;2023-12-14T08:38:29;1.50;;;1.40;;
24143;SDS011;12307;50.828;6.080;2023-12-14T08:40:55;1.75;;;1.20;;
24143;SDS011;12307;50.828;6.080;2023-12-14T08:43:21;1.17;;;1.08;;
24143;SDS011;12307;50.828;6.080;2023-12-14T08:45:49;1.10;;;1.00;;
24143;SDS011;12307;50.828;6.080;2023-12-14T08:48:15;1.20;;;1.10;;
24143;SDS011;12307;50.828;6.080;2023-12-14T08:50:41;3.63;;;1.20;;
24143;SDS011;12307;50.828;6.080;2023-12-14T08:53:07;1.20;;;1.00;;
24143;SDS011;12307;50.828;6.080;2023-12-14T08:55:35;1.20;;;1.10;;
24143;SDS011;12307;50.828;6.080;2023-12-14T08:58:00;1.25;;;1.15;;
24143;SDS011;12307;50.828;6.080;2023-12-14T09:00:26;1.55;;;1.13;;
24143;SDS011;12307;50.828;6.080;2023-12-14T09:02:52;1.33;;;1.23;;
24143;SDS011;12307;50.828;6.080;2023-12-14T09:05:18;1.20;;;1.10;;
24143;SDS011;12307;50.828;6.080;2023-12-14T09:07:45;1.30;;;1.20;;
24143;SDS011;12307;50.828;6.080;2023-12-14T09:10:11;1.20;;;1.08;;
24143;SDS011;12307;50.828;6.080;2023-12-14T09:12:38;1.40;;;1.30;;
24143;SDS011;12307;50.828;6.080;2023-12-14T09:15:04;1.45;;;1.17;;
24143;SDS011;12307;50.828;6.080;2023-12-14T09:17:30;1.13;;;1.00;;
24143;SDS011;12307;50.828;6.080;2023-12-14T09:19:59;2.03;;;1.23;;
24143;SDS011;12307;50.828;6.080;2023-12-14T09:22:25;1.33;;;1.00;;
24143;SDS011;12307;50.828;6.080;2023-12-14T09:24:51;1.30;;;1.20;;
24143;SDS011;12307;50.828;6.080;2023-12-14T09:27:17;1.30;;;1.20;;
24143;SDS011;12307;50.828;6.080;2023-12-14T09:29:44;1.15;;;1.08;;
24143;SDS011;12307;50.828;6.080;2023-12-14T09:32:10;1.38;;;1.27;;
24143;SDS011;12307;50.828;6.080;2023-12-14T09:34:35;1.52;;;1.20;;
24143;SDS011;12307;50.828;6.080;2023-12-14T09:37:01;1.10;;;1.00;;
24143;SDS011;12307;50.828;6.080;2023-12-14T09:39:27;1.23;;;0.90;;
24143;SDS011;12307;50.828;6.080;2023-12-14T09:42:01;1.23;;;1.10;;
24143;SDS011;12307;50.828;6.080;2023-12-14T09:44:27;1.15;;;1.00;;
24143;SDS011;12307;50.828;6.080;2023-12-14T09:46:55;1.30;;;1.20;;
24143;SDS011;12307;50.828;6.080;2023-12-14T09:49:24;1.70;;;1.00;;
24143;SDS011;12307;50.828;6.080;2023-12-14T09:51:54;1.60;;;1.10;;
24143;SDS011;12307;50.828;6.080;2023-12-14T09:54:19;1.20;;;1.00;;
24143;SDS011;12307;50.828;6.080;2023-12-14T09:56:45;1.20;;;1.00;;
24143;SDS011;12307;50.828;6.080;2023-12-14T09:59:12;1.23;;;1.13;;
24143;SDS011;12307;50.828;6.080;2023-12-14T10:01:38;1.48;;;1.15;;
24143;SDS011;12307;50.828;6.080;2023-12-14T10:04:11;2.22;;;1.27;;
24143;SDS011;12307;50.828;6.080;2023-12-14T10:06:38;1.10;;;1.10;;
24143;SDS011;12307;50.828;6.080;2023-12-14T10:09:05;1.20;;;1.10;;
24143;SDS011;12307;50.828;6.080;2023-12-14T10:11:34;1.40;;;1.10;;
24143;SDS011;12307;50.828;6.080;2023-12-14T10:14:01;1.17;;;1.00;;
24143;SDS011;12307;50.828;6.080;2023-12-14T10:16:28;1.20;;;1.10;;
24143;SDS011;12307;50.828;6.080;2023-12-14T10:18:55;0.98;;;0.88;;
24143;SDS011;12307;50.828;6.080;2023-12-14T10:21:23;1.17;;;1.08;;
24143;SDS011;12307;50.828;6.080;2023-12-14T10:23:49;1.30;;;1.10;;
24143;SDS011;12307;50.828;6.080;2023-12-14T10:26:14;1.15;;;1.00;;
24143;SDS011;12307;50.828;6.080;2023-12-14T10:28:40;1.30;;;1.15;;
24143;SDS011;12307;50.828;6.080;2023-12-14T10:31:06;1.20;;;1.10;;
24143;SDS011;12307;50.828;6.080;2023-12-14T10:33:32;2.60;;;1.15;;
24143;SDS011;12307;50.828;6.080;2023-12-14T10:35:58;1.13;;;1.02;;
24143;SDS011;12307;50.828;6.080;2023-12-14T10:38:26;1.63;;;1.20;;
24143;SDS011;12307;50.828;6.080;2023-12-14T10:40:54;1.30;;;1.13;;
24143;SDS011;12307;50.828;6.080;2023-12-14T10:43:22;1.10;;;1.00;;
24143;SDS011;12307;50.828;6.080;2023-12-14T10:45:48;0.90;;;0.90;;
24143;SDS011;12307;50.828;6.080;2023-12-14T10:48:15;1.45;;;1.00;;
24143;SDS011;12307;50.828;6.080;2023-12-14T10:50:45;0.98;;;0.90;;
24143;SDS011;12307;50.828;6.080;2023-12-14T10:53:13;1.50;;;1.10;;
24143;SDS011;12307;50.828;6.080;2023-12-14T10:55:41;1.10;;;1.00;;
24143;SDS011;12307;50.828;6.080;2023-12-14T10:58:09;1.08;;;0.98;;
24143;SDS011;12307;50.828;6.080;2023-12-14T11:00:36;1.63;;;1.17;;
24143;SDS011;12307;50.828;6.080;2023-12-14T11:03:03;1.20;;;1.10;;
24143;SDS011;12307;50.828;6.080;2023-12-14T11:05:31;2.33;;;1.30;;
24143;SDS011;12307;50.828;6.080;2023-12-14T11:08:00;1.67;;;1.00;;
24143;SDS011;12307;50.828;6.080;2023-12-14T11:10:35;3.83;;;1.13;;
24143;SDS011;12307;50.828;6.080;2023-12-14T11:13:05;1.10;;;1.00;;
24143;SDS011;12307;50.828;6.080;2023-12-14T11:15:35;1.42;;;1.20;;
24143;SDS011;12307;50.828;6.080;2023-12-14T11:18:23;1.10;;;1.00;;
24143;SDS011;12307;50.828;6.080;2023-12-14T11:20:56;1.10;;;1.00;;
24143;SDS011;12307;50.828;6.080;2023-12-14T11:23:27;1.00;;;0.90;;
24143;SDS011;12307;50.828;6.080;2023-12-14T11:25:59;0.90;;;0.90;;
24143;SDS011;12307;50.828;6.080;2023-12-14T11:28:29;1.23;;;1.10;;
24143;SDS011;12307;50.828;6.080;2023-12-14T11:30:56;1.30;;;1.20;;
24143;SDS011;12307;50.828;6.080;2023-12-14T11:33:21;1.17;;;1.00;;
24143;SDS011;12307;50.828;6.080;2023-12-14T11:35:48;0.90;;;0.90;;
24143;SDS011;12307;50.828;6.080;2023-12-14T11:38:15;1.33;;;1.17;;
24143;SDS011;12307;50.828;6.080;2023-12-14T11:40:42;0.95;;;0.90;;
24143;SDS011;12307;50.828;6.080;2023-12-14T11:43:08;1.95;;;1.10;;
24143;SDS011;12307;50.828;6.080;2023-12-14T11:45:36;1.50;;;1.15;;
24143;SDS011;12307;50.828;6.080;2023-12-14T11:48:03;1.00;;;0.95;;
24143;SDS011;12307;50.828;6.080;2023-12-14T11:50:30;1.50;;;1.00;;
24143;SDS011;12307;50.828;6.080;2023-12-14T11:52:56;1.20;;;0.90;;
24143;SDS011;12307;50.828;6.080;2023-12-14T11:55:22;1.20;;;1.08;;
24143;SDS011;12307;50.828;6.080;2023-12-14T11:57:48;1.25;;;1.10;;
24143;SDS011;12307;50.828;6.080;2023-12-14T12:00:16;1.20;;;1.00;;
24143;SDS011;12307;50.828;6.080;2023-12-14T12:02:44;1.10;;;1.00;;
24143;SDS011;12307;50.828;6.080;2023-12-14T12:05:09;1.17;;;0.98;;
24143;SDS011;12307;50.828;6.080;2023-12-14T12:07:43;0.88;;;0.88;;
24143;SDS011;12307;50.828;6.080;2023-12-14T12:10:09;1.40;;;1.30;;
24143;SDS011;12307;50.828;6.080;2023-12-14T12:12:35;1.25;;;1.15;;
24143;SDS011;12307;50.828;6.080;2023-12-14T12:15:01;1.55;;;1.02;;
24143;SDS011;12307;50.828;6.080;2023-12-14T12:17:27;1.25;;;1.15;;
24143;SDS011;12307;50.828;6.080;2023-12-14T12:19:54;1.13;;;1.02;;
24143;SDS011;12307;50.828;6.080;2023-12-14T12:22:20;1.92;;;1.17;;
24143;SDS011;12307;50.828;6.080;2023-12-14T12:24:46;0.90;;;0.85;;
24143;SDS011;12307;50.828;6.080;2023-12-14T12:27:11;1.00;;;1.00;;
24143;SDS011;12307;50.828;6.080;2023-12-14T12:29:37;1.10;;;1.00;;
24143;SDS011;12307;50.828;6.080;2023-12-14T12:32:03;0.90;;;0.90;;
24143;SDS011;12307;50.828;6.080;2023-12-14T12:34:29;1.25;;;1.05;;
24143;SDS011;12307;50.828;6.080;2023-12-14T12:36:56;1.30;;;0.90;;
24143;SDS011;12307;50.828;6.080;2023-12-14T12:39:22;0.90;;;0.80;;
24143;SDS011;12307;50.828;6.080;2023-12-14T12:41:48;1.17;;;1.08;;
24143;SDS011;12307;50.828;6.080;2023-12-14T12:44:14;1.30;;;1.10;;
24143;SDS011;12307;50.828;6.080;2023-12-14T12:46:39;1.27;;;1.17;;
24143;SDS011;12307;50.828;6.080;2023-12-14T12:49:06;1.67;;;1.38;;
24143;SDS011;12307;50.828;6.080;2023-12-14T12:51:32;1.75;;;1.42;;
24143;SDS011;12307;50.828;6.080;2023-12-14T12:53:59;1.30;;;1.20;;
24143;SDS011;12307;50.828;6.080;2023-12-14T12:56:26;1.45;;;1.35;;
24143;SDS011;12307;50.828;6.080;2023-12-14T12:58:53;1.60;;;1.50;;
24143;SDS011;12307;50.828;6.080;2023-12-14T13:01:19;2.35;;;1.80;;
24143;SDS011;12307;50.828;6.080;2023-12-14T13:03:46;1.67;;;1.58;;
24143;SDS011;12307;50.828;6.080;2023-12-14T13:06:12;1.80;;;1.25;;
24143;SDS011;12307;50.828;6.080;2023-12-14T13:08:37;2.30;;;1.30;;
24143;SDS011;12307;50.828;6.080;2023-12-14T13:11:04;1.98;;;1.45;;
24143;SDS011;12307;50.828;6.080;2023-12-14T13:13:30;1.50;;;1.40;;
24143;SDS011;12307;50.828;6.080;2023-12-14T13:15:56;1.42;;;1.33;;
24143;SDS011;12307;50.828;6.080;2023-12-14T13:18:22;1.60;;;1.50;;
24143;SDS011;12307;50.828;6.080;2023-12-14T13:20:47;1.75;;;1.30;;
24143;SDS011;12307;50.828;6.080;2023-12-14T13:23:13;1.55;;;1.38;;
24143;SDS011;12307;50.828;6.080;2023-12-14T13:25:39;1.60;;;1.50;;
24143;SDS011;12307;50.828;6.080;2023-12-14T13:28:06;1.40;;;1.30;;
24143;SDS011;12307;50.828;6.080;2023-12-14T13:30:31;1.52;;;1.20;;
24143;SDS011;12307;50.828;6.080;2023-12-14T13:32:57;1.70;;;1.20;;
24143;SDS011;12307;50.828;6.080;2023-12-14T13:35:23;1.70;;;1.20;;
24143;SDS011;12307;50.828;6.080;2023-12-14T13:37:49;3.35;;;1.40;;
24143;SDS011;12307;50.828;6.080;2023-12-14T13:40:15;2.13;;;1.40;;
24143;SDS011;12307;50.828;6.080;2023-12-14T13:42:41;1.23;;;1.13;;
24143;SDS011;12307;50.828;6.080;2023-12-14T13:45:09;1.75;;;1.30;;
24143;SDS011;12307;50.828;6.080;2023-12-14T13:47:35;1.73;;;1.40;;
24143;SDS011;12307;50.828;6.080;2023-12-14T13:50:01;1.50;;;1.40;;
24143;SDS011;12307;50.828;6.080;2023-12-14T13:52:29;1.50;;;1.17;;
24143;SDS011;12307;50.828;6.080;2023-12-14T13:54:55;1.20;;;1.10;;
24143;SDS011;12307;50.828;6.080;2023-12-14T13:57:21;1.75;;;1.10;;
24143;SDS011;12307;50.828;6.080;2023-12-14T13:59:47;1.48;;;1.23;;
24143;SDS011;12307;50.828;6.080;2023-12-14T14:02:14;1.40;;;1.27;;
24143;SDS011;12307;50.828;6.080;2023-12-14T14:04:40;1.63;;;1.30;;
24143;SDS011;12307;50.828;6.080;2023-12-14T14:07:06;1.73;;;1.30;;
24143;SDS011;12307;50.828;6.080;2023-12-14T14:09:31;1.45;;;1.35;;
24143;SDS011;12307;50.828;6.080;2023-12-14T14:11:58;1.52;;;1.23;;
24143;SDS011;12307;50.828;6.080;2023-12-14T14:14:23;1.60;;;1.20;;
24143;SDS011;12307;50.828;6.080;2023-12-14T14:16:49;1.83;;;1.42;;
24143;SDS011;12307;50.828;6.080;2023-12-14T14:19:16;1.40;;;1.30;;
24143;SDS011;12307;50.828;6.080;2023-12-14T14:21:42;1.48;;;1.35;;
24143;SDS011;12307;50.828;6.080;2023-12-14T14:24:08;1.63;;;1.30;;
24143;SDS011;12307;50.828;6.080;2023-12-14T14:26:35;1.83;;;1.10;;
24143;SDS011;12307;50.828;6.080;2023-12-14T14:29:01;1.35;;;1.25;;
24143;SDS011;12307;50.828;6.080;2023-12-14T14:31:27;1.30;;;1.20;;
24143;SDS011;12307;50.828;6.080;2023-12-14T14:33:57;1.95;;;1.35;;
24143;SDS011;12307;50.828;6.080;2023-12-14T14:36:24;1.55;;;1.27;;
24143;SDS011;12307;50.828;6.080;2023-12-14T14:38:49;1.40;;;1.30;;
24143;SDS011;12307;50.828;6.080;2023-12-14T14:41:19;1.20;;;1.10;;
24143;SDS011;12307;50.828;6.080;2023-12-14T14:43:44;2.20;;;1.35;;